Data for 09/19/2017

Time Sea-Level Adjusted Pressure Absolute Pressure Temperature Relative Humidity Dew Point   
(mb) (inHg) (mb) (inHg) (C) (F) (%) (C) (F)
00:05 1009 29.8 838 24.75 6.1 43 84 3.7 38.6
00:10 1009 29.8 838 24.75 6 42.7 84 3.5 38.3
00:15 1009 29.8 838 24.75 6 42.7 83 3.3 38
00:20 1009 29.8 838 24.75 6 42.8 83 3.4 38.2
00:25 1009 29.8 838 24.75 6 42.8 84 3.5 38.3
00:30 1009 29.8 838 24.75 5.9 42.7 84 3.5 38.2
00:35 1009 29.8 838 24.75 5.8 42.4 85 3.5 38.3
00:40 1009 29.8 838 24.75 5.6 42.1 86 3.4 38.2
00:45 1009 29.8 838 24.75 5.6 42 86 3.4 38.2
00:50 1009 29.8 838 24.75 5.5 41.9 87 3.5 38.2
00:55 1009 29.8 838 24.75 5.6 42.1 84 3.2 37.7
01:00 1009 29.8 838 24.75 5.6 42.1 84 3.1 37.7
01:05 1009 29.8 838 24.75 5.6 42.1 84 3.1 37.6
01:10 1009 29.8 838 24.75 5.5 42 85 3.3 37.9
01:15 1009 29.8 838 24.75 5.5 41.9 84 3 37.5
01:20 1009 29.8 838 24.75 5.5 41.9 85 3.2 37.7
01:25 1009 29.8 838 24.75 5.6 42.1 85 3.2 37.8
01:30 1009 29.8 838 24.75 5.6 42.1 84 3.2 37.7
01:35 1009 29.8 838 24.75 5.5 41.9 86 3.4 38.1
01:40 1009 29.8 839 24.78 5.5 41.9 84 3.1 37.5
01:45 1009 29.8 838 24.75 5.4 41.8 84 3 37.4
01:50 1009 29.8 838 24.75 5.4 41.8 83 2.8 37.1
01:55 1009 29.8 839 24.78 5.3 41.6 81 2.3 36.1
02:00 1009 29.8 838 24.75 5.2 41.4 80 2 35.5
02:05 1009 29.8 838 24.75 5.1 41.3 78 1.7 35
02:10 1009 29.8 838 24.75 5.1 41.2 79 1.7 35
02:15 1009 29.8 838 24.75 5 41 81 2 35.6
02:20 1009 29.8 838 24.75 4.8 40.7 83 2.2 35.9
02:25 1009 29.8 838 24.75 4.7 40.4 82 1.9 35.4
02:30 1009 29.8 838 24.75 4.6 40.3 84 2.1 35.7
02:35 1009 29.8 838 24.75 4.5 40.1 85 2.2 36
02:40 1009 29.8 838 24.75 4.4 39.9 80 1.2 34.2
02:45 1009 29.8 838 24.75 4.3 39.8 83 1.8 35.2
02:50 1009 29.8 838 24.75 4.1 39.4 83 1.5 34.7
02:55 1009 29.8 838 24.75 3.9 39 84 1.4 34.5
03:00 1009 29.8 838 24.75 3.6 38.5 83 1.1 33.9
03:05 1009 29.8 838 24.75 3.7 38.6 83 1 33.8
03:10 1008 29.77 838 24.75 3.9 39 82 1.1 34
03:15 1008 29.77 838 24.75 4 39.3 80 0.9 33.7
03:20 1008 29.77 838 24.75 4.1 39.5 80 0.9 33.7
03:25 1008 29.77 837 24.72 4.3 39.7 79 0.9 33.7
03:30 1008 29.77 838 24.75 4.3 39.8 79 1 33.7
03:35 1008 29.77 838 24.75 4.4 40 78 0.9 33.5
03:40 1008 29.77 838 24.75 4.4 40 79 1.2 34.1
03:45 1008 29.77 837 24.72 4.3 39.7 79 1 33.9
03:50 1008 29.77 837 24.72 4.2 39.5 81 1.1 34.1
03:55 1008 29.77 838 24.75 4.2 39.5 80 1 33.8
04:00 1008 29.77 837 24.72 4.2 39.6 79 0.9 33.6
04:05 1008 29.77 837 24.72 4.3 39.8 78 0.9 33.6
04:10 1008 29.77 838 24.75 4.5 40.1 78 1 33.9
04:15 1008 29.77 838 24.75 4.7 40.4 78 1.3 34.3
04:20 1008 29.77 838 24.75 4.7 40.4 80 1.6 34.8
04:25 1008 29.77 838 24.75 4.6 40.2 81 1.5 34.8
04:30 1008 29.77 838 24.75 4.5 40 81 1.4 34.6
04:35 1008 29.77 838 24.75 4.5 40 79 1.1 34
04:40 1008 29.77 838 24.75 4.5 40.1 80 1.3 34.3
04:45 1008 29.77 838 24.75 4.4 40 80 1.3 34.4
04:50 1008 29.77 838 24.75 4.4 40 81 1.5 34.6
04:55 1008 29.77 838 24.75 4.4 40 80 1.3 34.3
05:00 1009 29.8 838 24.75 4.6 40.3 78 1.2 34.1
05:05 1009 29.8 838 24.75 4.7 40.4 79 1.3 34.3
05:10 1009 29.8 838 24.75 4.7 40.4 78 1.2 34.2
05:15 1009 29.8 838 24.75 4.8 40.6 80 1.6 34.8
05:20 1009 29.8 838 24.75 4.8 40.7 77 1.2 34.2
05:25 1009 29.8 838 24.75 4.9 40.9 74 0.6 33.1
05:30 1009 29.8 838 24.75 5 41 77 1.2 34.2
05:35 1009 29.8 838 24.75 4.9 40.9 77 1.3 34.3
05:40 1009 29.8 838 24.75 4.9 40.7 78 1.4 34.5
05:45 1009 29.8 838 24.75 4.7 40.4 80 1.6 34.8
05:50 1009 29.8 838 24.75 4.5 40.1 81 1.5 34.8
05:55 1009 29.8 838 24.75 4.4 39.9 82 1.5 34.7
06:00 1009 29.8 838 24.75 4.2 39.6 81 1.3 34.3
06:05 1009 29.8 838 24.75 4.1 39.4 80 1 33.8
06:10 1009 29.8 838 24.75 3.9 39.1 81 1 33.7
06:15 1009 29.8 839 24.78 3.8 38.8 83 1.2 34.1
06:20 1009 29.8 839 24.78 3.7 38.6 83 1 33.8
06:25 1009 29.8 839 24.78 3.5 38.4 84 1 33.9
06:30 1010 29.83 839 24.78 3.4 38 84 0.9 33.6
06:35 1010 29.83 839 24.78 3.2 37.7 85 0.9 33.6
06:40 1010 29.83 839 24.78 3 37.5 86 0.8 33.5
06:45 1010 29.83 839 24.78 2.8 37.1 87 0.9 33.6
06:50 1010 29.83 839 24.78 2.6 36.7 86 0.6 33
06:55 1010 29.83 839 24.78 2.4 36.2 87 0.4 32.8
07:00 1010 29.83 839 24.78 2.2 35.9 88 0.4 32.7
07:05 1010 29.83 839 24.78 1.9 35.4 89 0.2 32.4
07:10 1010 29.83 839 24.78 1.6 34.9 89 0.1 32.1
07:15 1010 29.83 839 24.78 1.5 34.7 89 -0.1 31.9
07:20 1010 29.83 839 24.78 1.3 34.3 90 -0.2 31.6
07:25 1010 29.83 839 24.78 0.9 33.6 91 -0.4 31.2
07:30 1010 29.83 839 24.78 0.8 33.4 91 -0.5 31.1
07:35 1010 29.83 839 24.78 0.9 33.6 92 -0.3 31.4
07:40 1010 29.83 839 24.78 1.1 34 92 -0.1 31.8
07:45 1010 29.83 839 24.78 1.2 34.1 91 -0.1 31.8
07:50 1010 29.83 839 24.78 1.3 34.3 91 0 32
07:55 1010 29.83 839 24.78 1.5 34.7 91 0.1 32.3
08:00 1010 29.83 839 24.78 1.8 35.2 90 0.3 32.5
08:05 1010 29.83 839 24.78 2 35.6 89 0.4 32.7
08:10 1010 29.83 839 24.78 2.2 36 88 0.5 32.9
08:15 1010 29.83 839 24.78 2.5 36.4 87 0.5 32.9
08:20 1010 29.83 839 24.78 2.6 36.7 87 0.7 33.2
08:25 1010 29.83 839 24.78 2.8 37 87 0.8 33.4
08:30 1010 29.83 839 24.78 2.7 36.9 87 0.8 33.4
08:35 1010 29.83 839 24.78 2.7 36.9 88 1 33.8
08:40 1010 29.83 839 24.78 2.8 37.1 87 0.9 33.6
08:45 1010 29.83 839 24.78 2.7 36.9 88 0.9 33.6
08:50 1010 29.83 839 24.78 2.8 37 87 0.8 33.4
08:55 1010 29.83 839 24.78 3 37.4 88 1.2 34.2
09:00 1010 29.83 839 24.78 3.6 38.4 82 0.8 33.5
09:05 1010 29.83 839 24.78 3.8 38.8 84 1.3 34.3
09:10 1010 29.83 839 24.78 4.2 39.6 82 1.4 34.6
09:15 1010 29.83 839 24.78 4.4 39.9 83 1.7 35
09:20 1010 29.83 839 24.78 4.6 40.3 82 1.8 35.3
09:25 1010 29.83 839 24.78 5.4 41.8 81 2.5 36.5
09:30 1010 29.83 839 24.78 5.6 42 80 2.4 36.4
09:35 1010 29.83 839 24.78 5.8 42.4 82 2.9 37.2
09:40 1010 29.83 839 24.78 6.3 43.4 80 3.1 37.5
09:45 1010 29.83 839 24.78 6.8 44.2 75 2.7 36.9
09:50 1010 29.83 839 24.78 6.7 44.1 72 2.1 35.8
09:55 1010 29.83 839 24.78 6.7 44.1 72 2.1 35.8
10:00 1010 29.83 839 24.78 7.2 44.9 72 2.4 36.4
10:05 1010 29.83 839 24.78 7 44.6 71 2.1 35.9
10:10 1010 29.83 839 24.78 6.8 44.2 71 2 35.5
10:15 1010 29.83 839 24.78 7.1 44.8 71 2.3 36.1
10:20 1010 29.83 839 24.78 7.4 45.4 68 1.9 35.4
10:25 1010 29.83 839 24.78 7.4 45.3 69 2 35.7
10:30 1010 29.83 839 24.78 7.5 45.5 72 2.9 37.2
10:35 1010 29.83 839 24.78 7.5 45.4 69 2.2 35.9
10:40 1010 29.83 839 24.78 7.3 45.2 69 2 35.6
10:45 1010 29.83 839 24.78 7.5 45.6 68 2.1 35.8
10:50 1010 29.83 839 24.78 7.8 46.1 60 0.6 33.1
10:55 1010 29.83 839 24.78 8.2 46.7 52 -1 30.2
11:00 1010 29.83 839 24.78 8.7 47.7 52 -0.5 31.1
11:05 1010 29.83 839 24.78 8.3 46.9 54 -0.5 31
11:10 1010 29.83 839 24.78 8.7 47.7 51 -0.8 30.6
11:15 1010 29.83 839 24.78 8.5 47.2 55 -0.1 31.8
11:20 1010 29.83 839 24.78 9.2 48.6 49 -1 30.2
11:25 1010 29.83 839 24.78 10.1 50.2 49 -0 31.9
11:30 1010 29.83 839 24.78 10 50.1 51 0.4 32.6
11:35 1010 29.83 839 24.78 9.8 49.6 50 -0 31.9
11:40 1010 29.83 839 24.78 9.6 49.3 50 -0.2 31.6
11:45 1010 29.83 839 24.78 9.2 48.6 52 0 32
11:50 1010 29.83 839 24.78 9 48.1 50 -0.7 30.7
11:55 1009 29.8 839 24.78 9.4 48.9 50 -0.4 31.2
12:00 1009 29.8 839 24.78 9.5 49 49 -0.7 30.8
12:05 1009 29.8 838 24.75 10.1 50.1 44 -1.5 29.3
12:10 1009 29.8 838 24.75 9.7 49.4 44 -2 28.5
12:15 1009 29.8 838 24.75 9.3 48.7 44 -2.2 28
12:20 1009 29.8 838 24.75 9.2 48.6 45 -2 28.4
12:25 1009 29.8 838 24.75 9.4 49 43 -2.6 27.3
12:30 1009 29.8 838 24.75 9.6 49.2 42 -2.8 26.9
12:35 1009 29.8 838 24.75 9.8 49.6 42 -2.4 27.7
12:40 1009 29.8 838 24.75 9.8 49.7 43 -2.3 27.9
12:45 1009 29.8 838 24.75 9.4 48.9 43 -2.4 27.7
12:50 1009 29.8 839 24.78 8.4 47 46 -2.7 27.2
12:55 1009 29.8 839 24.78 8.1 46.6 46 -2.8 27
13:00 1009 29.8 838 24.75 8 46.4 46 -3 26.7
13:05 1009 29.8 838 24.75 8.4 47.2 42 -3.7 25.4
13:10 1009 29.8 838 24.75 9.1 48.3 42 -3.2 26.2
13:15 1009 29.8 838 24.75 9.4 48.9 42 -2.9 26.8
13:20 1009 29.8 838 24.75 9.3 48.8 42 -2.9 26.8
13:25 1009 29.8 838 24.75 9.7 49.5 39 -3.6 25.5
13:30 1009 29.8 838 24.75 10.1 50.3 40 -2.9 26.8
13:35 1009 29.8 838 24.75 10.4 50.6 39 -3.1 26.4
13:40 1009 29.8 838 24.75 10.6 51 36 -4 24.8
13:45 1009 29.8 838 24.75 10.8 51.5 36 -3.7 25.4
13:50 1009 29.8 838 24.75 11.4 52.5 35 -3.5 25.7
13:55 1009 29.8 838 24.75 11.7 53.1 32 -4.3 24.3
14:00 1009 29.8 838 24.75 11.3 52.4 33 -4.2 24.4
14:05 1009 29.8 838 24.75 11.1 51.9 34 -4 24.7
14:10 1009 29.8 838 24.75 11.5 52.6 34 -3.9 25
14:15 1009 29.8 838 24.75 11.1 51.9 35 -3.9 24.9
14:20 1009 29.8 838 24.75 11 51.9 34 -4 24.8
14:25 1009 29.8 838 24.75 10.7 51.3 36 -3.6 25.5
14:30 1009 29.8 838 24.75 10.8 51.4 34 -4.3 24.2
14:35 1009 29.8 838 24.75 10.8 51.5 35 -4 24.8
14:40 1009 29.8 838 24.75 10.8 51.4 35 -4 24.8
14:45 1009 29.8 838 24.75 10.7 51.2 39 -2.6 27.4
14:50 1009 29.8 839 24.78 9.6 49.3 48 -0.8 30.6
14:55 1010 29.83 839 24.78 8.7 47.6 50 -1.2 29.9
15:00 1010 29.83 839 24.78 8.3 46.9 51 -1.1 30
15:05 1010 29.83 839 24.78 8.1 46.6 51 -1.5 29.3
15:10 1010 29.83 839 24.78 8.1 46.5 53 -0.9 30.4
15:15 1010 29.83 839 24.78 8.2 46.8 52 -1 30.1
15:20 1010 29.83 839 24.78 8.2 46.8 52 -1.1 30.1
15:25 1010 29.83 839 24.78 8.2 46.7 51 -1.4 29.5
15:30 1010 29.83 839 24.78 8.3 47 51 -1.2 29.8
15:35 1010 29.83 839 24.78 8.4 47.1 51 -1.2 29.8
15:40 1010 29.83 839 24.78 8.6 47.4 50 -1.3 29.6
15:45 1010 29.83 839 24.78 8.4 47.2 51 -1.2 29.9
15:50 1010 29.83 839 24.78 8 46.4 51 -1.4 29.4
15:55 1010 29.83 839 24.78 8.3 46.9 50 -1.4 29.4
16:00 1010 29.83 839 24.78 8.5 47.2 50 -1.3 29.7
16:05 1010 29.83 839 24.78 8.4 47 51 -1.1 30.1
16:10 1010 29.83 839 24.78 8.1 46.6 54 -0.5 31.1
16:15 1010 29.83 839 24.78 8.1 46.6 54 -0.6 30.9
16:20 1010 29.83 839 24.78 7.7 45.8 58 0 32.1
16:25 1010 29.83 839 24.78 6.9 44.4 62 0.1 32.3
16:30 1010 29.83 839 24.78 6.9 44.4 59 -0.6 30.9
16:35 1010 29.83 840 24.81 7.2 44.9 60 0 32
16:40 1010 29.83 840 24.81 7.1 44.9 63 0.5 32.9
16:45 1010 29.83 840 24.81 7.3 45.1 64 0.8 33.5
16:50 1010 29.83 839 24.78 6.4 43.5 66 0.6 33.1
16:55 1010 29.83 839 24.78 5.7 42.3 70 0.8 33.4
17:00 1010 29.83 840 24.81 5.5 41.9 72 0.8 33.5
17:05 1011 29.85 840 24.81 5.4 41.7 72 0.8 33.5
17:10 1011 29.85 840 24.81 5.3 41.5 71 0.5 32.9
17:15 1011 29.85 840 24.81 5.3 41.5 72 0.6 33.1
17:20 1011 29.85 840 24.81 5.4 41.7 72 0.6 33.2
17:25 1011 29.85 840 24.81 5.4 41.8 71 0.6 33.2
17:30 1011 29.85 840 24.81 5.4 41.7 73 0.9 33.6
17:35 1011 29.85 840 24.81 5.3 41.6 73 0.8 33.5
17:40 1011 29.85 840 24.81 5.2 41.3 73 0.7 33.3
17:45 1011 29.85 840 24.81 5 41.1 74 0.8 33.4
17:50 1011 29.85 840 24.81 5 41.1 75 0.9 33.6
17:55 1011 29.85 840 24.81 4.9 40.9 75 0.8 33.5
18:00 1011 29.85 840 24.81 4.9 40.9 75 0.9 33.6
18:05 1011 29.85 840 24.81 4.9 40.9 75 0.8 33.5
18:10 1010 29.83 840 24.81 5 41 75 0.9 33.7
18:15 1010 29.83 840 24.81 5.1 41.1 74 0.8 33.4
18:20 1010 29.83 840 24.81 5 41.1 74 0.8 33.5
18:25 1010 29.83 840 24.81 5 40.9 74 0.7 33.3
18:30 1010 29.83 840 24.81 5 40.9 74 0.6 33.2
18:35 1010 29.83 840 24.81 4.9 40.9 73 0.6 33
18:40 1010 29.83 840 24.81 5 41 73 0.5 32.9
18:45 1010 29.83 840 24.81 4.9 40.9 73 0.6 33
18:50 1010 29.83 840 24.81 4.9 40.8 75 0.8 33.4
18:55 1011 29.85 840 24.81 5.2 41.4 75 1.2 34.1
19:00 1011 29.85 841 24.83 4.5 40 81 1.4 34.6
19:05 1012 29.88 841 24.83 2.9 37.2 87 0.9 33.6
19:10 1011 29.85 841 24.83 2.7 36.8 89 1 33.8
19:15 1011 29.85 841 24.83 2.8 37.1 89 1.2 34.1
19:20 1012 29.88 841 24.83 3 37.3 88 1.2 34.2
19:25 1012 29.88 841 24.83 3.1 37.6 88 1.3 34.4
19:30 1012 29.88 841 24.83 3.1 37.6 88 1.2 34.2
19:35 1012 29.88 841 24.83 2.4 36.4 89 0.7 33.3
19:40 1012 29.88 841 24.83 1.8 35.3 90 0.3 32.6
19:45 1012 29.88 841 24.83 1.8 35.3 89 0.2 32.4
19:50 1012 29.88 841 24.83 2 35.6 89 0.3 32.6
19:55 1012 29.88 841 24.83 2.2 36 88 0.4 32.7
20:00 1012 29.88 841 24.83 2.4 36.3 87 0.5 32.9
20:05 1012 29.88 841 24.83 2.5 36.5 87 0.5 32.9
20:10 1012 29.88 841 24.83 2.5 36.5 87 0.6 33
20:15 1012 29.88 841 24.83 2.5 36.4 88 0.7 33.2
20:20 1012 29.88 841 24.83 2.4 36.3 88 0.7 33.2
20:25 1012 29.88 841 24.83 2.4 36.4 86 0.3 32.6
20:30 1012 29.88 841 24.83 3 37.4 81 0 32
20:35 1012 29.88 841 24.83 3.5 38.3 77 -0.2 31.6
20:40 1012 29.88 841 24.83 3.7 38.7 76 -0.1 31.9
20:45 1011 29.85 841 24.83 3.7 38.7 77 0.1 32.2
20:50 1011 29.85 841 24.83 3.8 38.8 76 -0.1 31.8
20:55 1011 29.85 841 24.83 3.9 39 76 0 32
21:00 1011 29.85 841 24.83 3.8 38.9 81 0.9 33.5
21:05 1011 29.85 841 24.83 3.7 38.6 82 0.9 33.6
21:10 1011 29.85 841 24.83 3.6 38.5 80 0.5 32.9
21:15 1011 29.85 841 24.83 3.6 38.5 81 0.7 33.3
21:20 1011 29.85 840 24.81 3.7 38.6 81 0.7 33.2
21:25 1011 29.85 840 24.81 3.7 38.6 82 0.9 33.5
21:30 1011 29.85 840 24.81 3.6 38.4 83 0.9 33.6
21:35 1011 29.85 840 24.81 3.4 38.1 83 0.8 33.4
21:40 1011 29.85 841 24.83 3.4 38.1 84 1 33.8
21:45 1012 29.88 841 24.83 3.6 38.5 84 1.1 34
21:50 1012 29.88 841 24.83 3.8 38.9 78 0.3 32.5
21:55 1012 29.88 841 24.83 4.1 39.3 77 0.5 32.9
22:00 1012 29.88 841 24.83 4.1 39.4 77 0.4 32.8
22:05 1011 29.85 841 24.83 4 39.3 77 0.3 32.6
22:10 1011 29.85 841 24.83 4 39.2 78 0.5 33
22:15 1011 29.85 841 24.83 4 39.1 78 0.5 32.9
22:20 1011 29.85 841 24.83 3.9 39.1 77 0.2 32.4
22:25 1011 29.85 840 24.81 3.7 38.7 78 0.2 32.3
22:30 1011 29.85 840 24.81 3.5 38.4 80 0.3 32.6
22:35 1011 29.85 840 24.81 3.3 38 80 0.2 32.4
22:40 1011 29.85 840 24.81 3 37.3 83 0.4 32.8
22:45 1011 29.85 840 24.81 2.7 36.8 84 0.3 32.5
22:50 1011 29.85 840 24.81 2.6 36.7 83 0 32.1
22:55 1011 29.85 840 24.81 2.6 36.7 80 -0.4 31.3
23:00 1011 29.85 840 24.81 3 37.4 79 -0.3 31.4
23:05 1011 29.85 840 24.81 3.2 37.8 75 -0.7 30.7
23:10 1011 29.85 840 24.81 3.2 37.8 80 0.2 32.3
23:15 1011 29.85 840 24.81 2.8 37.1 83 0.2 32.4
23:20 1011 29.85 840 24.81 2.5 36.6 84 0.1 32.1
23:25 1011 29.85 840 24.81 2.4 36.4 84 0.1 32.2
23:30 1011 29.85 840 24.81 2.4 36.3 86 0.3 32.6
23:35 1011 29.85 840 24.81 2.2 35.9 86 0.1 32.2
23:40 1011 29.85 840 24.81 2.1 35.8 86 -0 31.9
23:45 1011 29.85 840 24.81 2 35.6 86 -0.1 31.9
23:50 1011 29.85 840 24.81 2 35.6 86 -0.2 31.7
23:55 1011 29.85 840 24.81 2 35.7 84 -0.3 31.4
24:00 1011 29.85 840 24.81 2.2 36 84 -0.3 31.5